Time;durP1;ratioP1;P1;durP2;ratioP2;P2;SDS_P1;SDS_P2;PMS_P1;PMS_P2;Temp;Humidity;BMP_temperature;BMP_pressure;BME280_temperature;BME280_humidity;BME280_pressure;Samples;Min_cycle;Max_cycle;Signal;HPM_P1;HPM_P2
2022/06/21 00:02:08;;;;;;;25.80;24.40;;;17.70;74.70;;;;;;5001587;28;20569;-70
2022/06/21 00:04:36;;;;;;;25.87;24.47;;;17.70;74.70;;;;;;5000197;28;20462;-70
2022/06/21 00:07:05;;;;;;;27.13;25.63;;;17.70;74.80;;;;;;5005661;28;20844;-70
2022/06/21 00:09:32;;;;;;;25.53;24.23;;;17.70;74.70;;;;;;4997002;28;20481;-70
2022/06/21 00:12:01;;;;;;;25.73;24.33;;;17.70;74.70;;;;;;4999056;28;21316;-70
2022/06/21 00:14:28;;;;;;;25.30;23.90;;;17.70;74.80;;;;;;5001055;28;20457;-70
2022/06/21 00:16:55;;;;;;;25.80;24.50;;;17.70;75.10;;;;;;5006689;28;20485;-69
2022/06/21 00:19:23;;;;;;;25.83;24.20;;;17.70;75.10;;;;;;4998528;28;20461;-72
2022/06/21 00:21:51;;;;;;;25.90;24.50;;;17.70;75.20;;;;;;4996095;28;20457;-72
2022/06/21 00:24:18;;;;;;;26.20;24.80;;;17.70;75.30;;;;;;4996027;28;20496;-71
2022/06/21 00:26:47;;;;;;;25.97;24.67;;;17.70;75.30;;;;;;5005463;28;20571;-69
2022/06/21 00:29:16;;;;;;;26.17;24.77;;;17.60;75.30;;;;;;5000741;28;20462;-73
2022/06/21 00:31:47;;;;;;;25.73;24.43;;;17.60;75.40;;;;;;5003819;28;20472;-71
2022/06/21 00:34:17;;;;;;;25.67;24.23;;;17.50;75.60;;;;;;5000555;28;20477;-74
2022/06/21 00:36:45;;;;;;;26.67;25.17;;;17.50;75.80;;;;;;5000896;28;20598;-74
2022/06/21 00:39:15;;;;;;;26.40;24.90;;;17.50;75.90;;;;;;4997382;28;20944;-73
2022/06/21 00:41:45;;;;;;;26.17;24.77;;;17.50;76.20;;;;;;5006386;28;20478;-71
2022/06/21 00:44:16;;;;;;;25.30;23.90;;;17.50;76.20;;;;;;5002240;28;20474;-71
2022/06/21 00:46:46;;;;;;;25.67;24.27;;;17.40;76.00;;;;;;5021095;28;21715;-71
2022/06/21 00:49:19;;;;;;;26.07;24.60;;;17.40;75.90;;;;;;5000295;28;20464;-71
2022/06/21 00:51:48;;;;;;;26.27;24.77;;;17.40;76.20;;;;;;5005780;28;20487;-70
2022/06/21 00:54:20;;;;;;;26.40;25.00;;;17.30;76.40;;;;;;5002954;28;20462;-70
2022/06/21 00:56:53;;;;;;;26.57;25.20;;;17.30;76.70;;;;;;5020903;28;20999;-69
2022/06/21 00:59:25;;;;;;;26.17;24.87;;;17.30;76.80;;;;;;4999558;28;20548;-72
2022/06/21 01:01:56;;;;;;;27.47;25.83;;;17.30;77.00;;;;;;5004476;28;20462;-73
2022/06/21 01:04:30;;;;;;;26.93;25.43;;;17.30;77.10;;;;;;5002004;28;20492;-70
2022/06/21 01:07:01;;;;;;;25.30;24.10;;;17.30;77.20;;;;;;5014314;28;20504;-72
2022/06/21 01:09:32;;;;;;;26.00;24.70;;;17.30;77.10;;;;;;4999621;28;20487;-75
2022/06/21 01:12:06;;;;;;;25.67;24.27;;;17.30;77.30;;;;;;5002758;28;20711;-72
2022/06/21 01:14:39;;;;;;;25.97;24.47;;;17.30;77.30;;;;;;4999493;28;20492;-72
2022/06/21 01:17:08;;;;;;;26.00;24.70;;;17.20;77.20;;;;;;5004704;28;20564;-74
2022/06/21 01:19:40;;;;;;;26.17;24.77;;;17.20;77.10;;;;;;5004731;28;20583;-73
2022/06/21 01:22:16;;;;;;;26.10;24.80;;;17.20;77.20;;;;;;5003384;28;20456;-71
2022/06/21 01:24:53;;;;;;;26.47;25.10;;;17.20;77.20;;;;;;5006431;28;20544;-72
2022/06/21 01:27:21;;;;;;;26.10;24.80;;;17.10;77.60;;;;;;5013578;28;20571;-72
2022/06/21 01:29:49;;;;;;;26.30;24.90;;;17.10;77.80;;;;;;5003738;28;20552;-72
2022/06/21 01:32:16;;;;;;;26.27;24.83;;;17.00;78.00;;;;;;5002596;28;20491;-71
2022/06/21 01:34:42;;;;;;;26.30;25.00;;;16.90;78.40;;;;;;5002702;28;20572;-71
2022/06/21 01:37:13;;;;;;;26.67;25.27;;;16.90;78.50;;;;;;5014001;28;20563;-71
2022/06/21 01:39:47;;;;;;;26.03;24.63;;;16.90;78.40;;;;;;5007397;28;20556;-69
2022/06/21 01:42:19;;;;;;;26.80;25.40;;;16.90;78.40;;;;;;5010025;28;20476;-70
2022/06/21 01:44:52;;;;;;;27.10;25.60;;;16.90;78.40;;;;;;5002910;28;20555;-69
2022/06/21 01:47:23;;;;;;;27.23;25.73;;;16.90;78.40;;;;;;5003409;28;20487;-69
2022/06/21 01:49:54;;;;;;;26.00;24.70;;;16.90;78.10;;;;;;5000934;28;20465;-70
2022/06/21 01:52:24;;;;;;;27.40;25.90;;;17.00;77.90;;;;;;5005604;28;20684;-69
2022/06/21 01:54:57;;;;;;;26.50;25.10;;;17.10;75.70;;;;;;5008831;28;20454;-70
2022/06/21 01:57:25;;;;;;;26.60;25.03;;;17.20;73.40;;;;;;5000205;28;20572;-69
2022/06/21 01:59:54;;;;;;;25.97;24.47;;;17.10;73.30;;;;;;5001352;28;20468;-70
2022/06/21 02:02:24;;;;;;;27.00;25.40;;;17.10;72.90;;;;;;5003378;28;20556;-69
2022/06/21 02:04:57;;;;;;;25.57;24.17;;;17.10;72.80;;;;;;5011030;28;20461;-73
2022/06/21 02:07:28;;;;;;;25.77;24.47;;;17.00;72.90;;;;;;5008019;28;20568;-70
2022/06/21 02:10:04;;;;;;;26.20;24.80;;;16.90;73.10;;;;;;5006827;28;20563;-70
2022/06/21 02:12:33;;;;;;;26.60;25.10;;;16.80;73.40;;;;;;5007766;28;20481;-70
2022/06/21 02:15:03;;;;;;;25.93;24.43;;;16.70;73.80;;;;;;5001762;28;21119;-70
2022/06/21 02:17:34;;;;;;;26.13;24.73;;;16.70;74.00;;;;;;5012322;28;20580;-70
2022/06/21 02:20:05;;;;;;;25.60;24.30;;;16.60;74.10;;;;;;5006453;28;20557;-70
2022/06/21 02:22:34;;;;;;;28.00;26.43;;;16.60;74.00;;;;;;5006882;28;20454;-70
2022/06/21 02:25:01;;;;;;;27.07;25.10;;;16.50;74.40;;;;;;5007003;28;20595;-70
2022/06/21 02:27:32;;;;;;;25.90;24.50;;;16.40;74.70;;;;;;5008801;28;20571;-70
2022/06/21 02:30:12;;;;;;;26.03;24.63;;;16.40;75.30;;;;;;5001088;28;21026;-70
2022/06/21 02:32:42;;;;;;;25.80;24.13;;;16.40;76.00;;;;;;5009574;28;20485;-71
2022/06/21 02:35:18;;;;;;;25.97;24.50;;;16.40;75.90;;;;;;5008287;28;20484;-71
2022/06/21 02:37:46;;;;;;;25.60;24.20;;;16.40;76.00;;;;;;5006424;28;20476;-71
2022/06/21 02:40:21;;;;;;;24.90;23.60;;;16.40;76.20;;;;;;5001437;28;20544;-70
2022/06/21 02:42:50;;;;;;;25.77;24.37;;;16.40;76.30;;;;;;5009734;28;20464;-70
2022/06/21 02:45:27;;;;;;;26.80;25.40;;;16.40;76.30;;;;;;5008417;28;20547;-70
2022/06/21 02:47:56;;;;;;;26.07;24.67;;;16.40;76.40;;;;;;5002302;28;20567;-70
2022/06/21 02:50:34;;;;;;;27.70;26.20;;;16.40;76.20;;;;;;4993756;28;20548;-70
2022/06/21 02:53:04;;;;;;;24.90;23.60;;;16.40;76.20;;;;;;4999892;28;20453;-70
2022/06/21 02:55:39;;;;;;;25.20;23.70;;;16.40;76.30;;;;;;4995210;28;20847;-70
2022/06/21 02:58:13;;;;;;;25.93;24.23;;;16.40;76.20;;;;;;5003721;28;20468;-70
2022/06/21 03:00:43;;;;;;;24.70;23.40;;;16.40;75.90;;;;;;5003250;28;21265;-70
2022/06/21 03:03:16;;;;;;;25.53;24.13;;;16.40;75.20;;;;;;5011193;28;20461;-71
2022/06/21 03:05:43;;;;;;;27.10;25.60;;;16.40;75.00;;;;;;5010580;28;20564;-70
2022/06/21 03:08:11;;;;;;;26.80;25.30;;;16.40;74.90;;;;;;5004489;28;20500;-70
2022/06/21 03:10:41;;;;;;;31.93;30.33;;;16.50;74.60;;;;;;5011319;28;21032;-70
2022/06/21 03:13:12;;;;;;;28.97;27.37;;;16.50;74.70;;;;;;5012107;28;20449;-72
2022/06/21 03:15:44;;;;;;;27.00;25.60;;;16.50;74.70;;;;;;5008979;28;20464;-73
2022/06/21 03:18:16;;;;;;;27.73;26.20;;;16.50;74.80;;;;;;5005049;28;20572;-72
2022/06/21 03:20:43;;;;;;;27.50;25.93;;;16.50;74.70;;;;;;5006606;28;20989;-72
2022/06/21 03:23:13;;;;;;;28.17;26.50;;;16.50;74.70;;;;;;5004809;28;20545;-72
2022/06/21 03:25:45;;;;;;;26.87;25.43;;;16.50;74.60;;;;;;5008211;28;20544;-72
2022/06/21 03:28:24;;;;;;;25.33;23.93;;;16.50;74.50;;;;;;5003095;28;20612;-75
2022/06/21 03:30:57;;;;;;;26.30;24.80;;;16.60;74.30;;;;;;5006996;28;20461;-72
2022/06/21 03:33:25;;;;;;;27.00;25.40;;;16.60;74.50;;;;;;5004196;28;20462;-73
2022/06/21 03:35:52;;;;;;;27.10;25.50;;;16.60;74.20;;;;;;5010086;28;20473;-72
2022/06/21 03:38:19;;;;;;;26.63;25.13;;;16.70;74.20;;;;;;5005957;28;20568;-72
2022/06/21 03:43:34;;;;;;;29.23;27.73;;;17.00;73.40;;;;;;5006843;28;20515;-72
2022/06/21 03:46:07;;;;;;;26.70;25.13;;;17.20;73.90;;;;;;5012228;28;20464;-72
2022/06/21 03:48:39;;;;;;;25.97;24.47;;;17.40;73.70;;;;;;5002753;28;20971;-76
2022/06/21 03:51:10;;;;;;;26.23;24.73;;;17.60;73.30;;;;;;4998094;28;20468;-72
2022/06/21 03:53:43;;;;;;;26.60;25.20;;;17.80;72.80;;;;;;5000389;28;20539;-72
2022/06/21 03:56:18;;;;;;;27.90;26.40;;;18.00;71.90;;;;;;5007087;28;20491;-72
2022/06/21 03:58:53;;;;;;;27.00;25.40;;;18.20;71.60;;;;;;5003315;28;20481;-71
2022/06/21 04:01:27;;;;;;;28.70;27.00;;;18.60;69.90;;;;;;5007818;28;20955;-72
2022/06/21 04:03:59;;;;;;;28.87;27.07;;;18.80;68.60;;;;;;4998851;28;20457;-75
2022/06/21 04:06:32;;;;;;;30.80;28.87;;;18.80;68.50;;;;;;5002390;28;20820;-76
2022/06/21 04:09:04;;;;;;;27.97;26.27;;;18.70;69.10;;;;;;5000240;28;20477;-73
2022/06/21 04:11:37;;;;;;;36.70;34.97;;;18.70;69.40;;;;;;5013458;28;20473;-72
2022/06/21 04:14:12;;;;;;;29.73;28.03;;;18.60;69.80;;;;;;5004785;28;20560;-72
2022/06/21 04:16:45;;;;;;;27.90;26.30;;;18.60;69.50;;;;;;5004880;28;20520;-72
2022/06/21 04:19:21;;;;;;;27.20;25.63;;;18.60;69.50;;;;;;5004022;28;21064;-72
2022/06/21 04:21:54;;;;;;;28.03;26.10;;;18.70;67.10;;;;;;5002052;28;20461;-72
2022/06/21 04:24:27;;;;;;;25.67;24.27;;;18.80;66.00;;;;;;5007436;28;20517;-72
2022/06/21 04:27:01;;;;;;;29.10;27.30;;;18.90;65.80;;;;;;5020102;28;20488;-72
2022/06/21 04:29:31;;;;;;;26.43;24.67;;;18.90;67.30;;;;;;4996976;28;20450;-71
2022/06/21 04:32:06;;;;;;;26.90;25.30;;;19.00;67.50;;;;;;5001018;28;20572;-70
2022/06/21 04:34:38;;;;;;;30.50;28.90;;;19.00;67.10;;;;;;5001595;28;20560;-71
2022/06/21 04:37:10;;;;;;;27.47;25.67;;;19.00;63.80;;;;;;4992995;28;20469;-73
2022/06/21 04:39:45;;;;;;;29.37;27.30;;;19.00;62.20;;;;;;5004816;28;20482;-75
2022/06/21 04:42:17;;;;;;;27.20;25.43;;;19.00;62.10;;;;;;5006553;28;20539;-78
2022/06/21 04:44:57;;;;;;;27.10;25.17;;;19.10;62.30;;;;;;5004452;28;20480;-72
2022/06/21 04:47:29;;;;;;;26.40;24.90;;;19.20;61.30;;;;;;5006097;28;20481;-72
2022/06/21 04:50:02;;;;;;;26.50;24.97;;;19.20;60.40;;;;;;5002130;28;20468;-73
2022/06/21 04:52:34;;;;;;;26.83;25.23;;;19.30;59.50;;;;;;5010557;28;20480;-71
2022/06/21 04:55:03;;;;;;;30.33;28.63;;;19.30;59.60;;;;;;5003663;28;20467;-70
2022/06/21 04:57:32;;;;;;;26.70;25.00;;;19.50;59.80;;;;;;5009021;28;21039;-69
2022/06/21 05:00:03;;;;;;;28.50;26.90;;;19.40;59.20;;;;;;5008363;28;20475;-71
2022/06/21 05:02:35;;;;;;;28.53;26.83;;;19.40;59.60;;;;;;5003841;28;20473;-71
2022/06/21 05:05:07;;;;;;;29.57;27.80;;;19.40;58.60;;;;;;5003547;28;20457;-72
2022/06/21 05:07:41;;;;;;;27.90;26.30;;;19.50;59.50;;;;;;4999174;28;20493;-69
2022/06/21 05:10:14;;;;;;;26.60;25.10;;;19.70;58.90;;;;;;5001149;28;20476;-69
2022/06/21 05:12:44;;;;;;;28.67;26.83;;;19.70;59.20;;;;;;5001392;28;20482;-70
2022/06/21 05:15:17;;;;;;;27.73;25.93;;;19.80;59.50;;;;;;5000636;28;20482;-72
2022/06/21 05:17:53;;;;;;;28.30;26.60;;;19.80;57.70;;;;;;5001625;28;20995;-75
2022/06/21 05:20:26;;;;;;;26.90;25.20;;;19.80;58.30;;;;;;5002517;28;20473;-72
2022/06/21 05:22:57;;;;;;;26.97;25.23;;;19.70;58.40;;;;;;5000026;28;20916;-73
2022/06/21 05:25:28;;;;;;;27.73;26.03;;;19.80;59.10;;;;;;5008631;28;20462;-72
2022/06/21 05:28:00;;;;;;;27.17;25.50;;;20.00;57.70;;;;;;5004187;28;20482;-75
2022/06/21 05:30:39;;;;;;;28.77;27.00;;;20.10;57.20;;;;;;5010657;28;20542;-70
2022/06/21 05:33:13;;;;;;;28.10;26.50;;;20.10;57.40;;;;;;5007375;28;20477;-71
2022/06/21 05:35:42;;;;;;;29.03;27.13;;;20.10;57.20;;;;;;5007682;28;20455;-71
2022/06/21 05:38:14;;;;;;;27.93;26.17;;;20.10;57.30;;;;;;5000282;28;20477;-71
2022/06/21 05:40:48;;;;;;;28.67;26.97;;;20.00;57.40;;;;;;4998090;28;20453;-72
2022/06/21 05:43:19;;;;;;;28.15;26.55;;;20.10;57.30;;;;;;5008018;28;20958;-70
2022/06/21 05:45:54;;;;;;;28.40;26.50;;;20.00;57.30;;;;;;5008529;28;20213;-70
2022/06/21 05:48:24;;;;;;;26.40;24.90;;;19.90;57.90;;;;;;5006041;28;20567;-71
2022/06/21 05:50:52;;;;;;;26.33;24.73;;;19.90;57.80;;;;;;5006551;28;20812;-71
2022/06/21 05:53:28;;;;;;;27.80;26.20;;;19.90;58.00;;;;;;5009829;28;20476;-71
2022/06/21 05:55:56;;;;;;;26.80;25.23;;;20.00;57.40;;;;;;5000892;28;20898;-70
2022/06/21 05:58:34;;;;;;;29.30;27.50;;;20.10;57.20;;;;;;5007018;28;20484;-72
2022/06/21 06:01:06;;;;;;;27.60;26.00;;;20.20;56.80;;;;;;5008669;28;20984;-73
2022/06/21 06:03:45;;;;;;;27.02;25.30;;;20.20;59.60;;;;;;5002165;28;20547;-74
2022/06/21 06:06:14;;;;;;;29.43;27.43;;;20.40;57.70;;;;;;5008657;28;20210;-73
2022/06/21 06:08:45;;;;;;;28.63;26.93;;;20.60;57.10;;;;;;5005793;28;20459;-76
2022/06/21 06:11:18;;;;;;;29.10;27.30;;;20.70;57.00;;;;;;5001035;28;20455;-71
2022/06/21 06:13:47;;;;;;;28.73;27.03;;;20.80;55.10;;;;;;5001073;28;20488;-73
2022/06/21 06:16:30;;;;;;;29.33;27.30;;;21.00;55.00;;;;;;5001704;28;20954;-74
2022/06/21 06:19:03;;;;;;;27.57;25.93;;;21.00;53.80;;;;;;4998476;28;20480;-72
2022/06/21 06:21:35;;;;;;;27.20;25.50;;;20.80;54.80;;;;;;5011628;28;20555;-72
2022/06/21 06:24:12;;;;;;;26.67;25.07;;;20.90;54.70;;;;;;4997547;28;20468;-71
2022/06/21 06:26:41;;;;;;;27.37;25.67;;;20.90;55.20;;;;;;5010479;28;20490;-71
2022/06/21 06:29:19;;;;;;;28.70;26.90;;;21.00;54.50;;;;;;5003108;28;20476;-72
2022/06/21 06:31:52;;;;;;;29.10;27.20;;;21.20;54.40;;;;;;5009306;28;20461;-70
2022/06/21 06:34:24;;;;;;;28.90;27.30;;;21.40;54.80;;;;;;5008951;28;20472;-71
2022/06/21 06:36:53;;;;;;;30.10;28.00;;;21.60;53.40;;;;;;5006998;28;20478;-71
2022/06/21 06:39:23;;;;;;;29.13;27.43;;;21.40;53.70;;;;;;4998129;28;20479;-72
2022/06/21 06:41:58;;;;;;;30.40;28.30;;;21.40;54.10;;;;;;5003004;28;20471;-72
2022/06/21 06:44:28;;;;;;;30.83;28.83;;;21.10;55.50;;;;;;4997374;28;20475;-72
2022/06/21 06:46:58;;;;;;;28.00;26.40;;;21.10;55.90;;;;;;5011939;28;20494;-72
2022/06/21 06:49:31;;;;;;;27.63;25.77;;;21.20;56.60;;;;;;5005610;28;20499;-71
2022/06/21 06:52:03;;;;;;;29.90;28.00;;;21.30;56.40;;;;;;4994753;28;22807;-71
2022/06/21 06:54:38;;;;;;;27.90;26.23;;;21.40;55.90;;;;;;5000097;28;20572;-72
2022/06/21 06:57:18;;;;;;;26.97;25.20;;;21.50;55.60;;;;;;5018612;28;20487;-71
2022/06/21 06:59:45;;;;;;;28.77;27.07;;;21.40;56.20;;;;;;5006502;28;20544;-71
2022/06/21 07:02:19;;;;;;;32.50;29.67;;;21.50;56.00;;;;;;5004874;28;20461;-72
2022/06/21 07:04:54;;;;;;;29.97;28.10;;;21.70;56.60;;;;;;5004687;28;20890;-72
2022/06/21 07:07:34;;;;;;;28.37;26.77;;;21.90;56.00;;;;;;5025311;28;21004;-73
2022/06/21 07:10:06;;;;;;;31.83;29.93;;;22.00;55.30;;;;;;5010022;28;21005;-74
2022/06/21 07:12:33;;;;;;;28.73;26.87;;;21.90;54.90;;;;;;5008081;28;20482;-73
2022/06/21 07:15:00;;;;;;;29.23;27.63;;;22.00;54.20;;;;;;5002022;28;20473;-72
2022/06/21 07:17:33;;;;;;;28.33;26.63;;;22.20;54.00;;;;;;5001235;28;20491;-72
2022/06/21 07:20:02;;;;;;;29.00;27.13;;;22.00;55.30;;;;;;5005729;28;20546;-73
2022/06/21 07:22:34;;;;;;;27.90;26.20;;;22.30;54.20;;;;;;4996788;28;20455;-73
2022/06/21 07:25:07;;;;;;;28.30;26.60;;;22.70;53.10;;;;;;5004853;28;20472;-73
2022/06/21 07:27:38;;;;;;;30.30;28.17;;;22.90;52.70;;;;;;5011767;28;21040;-72
2022/06/21 07:30:08;;;;;;;29.90;28.10;;;23.20;53.10;;;;;;5000230;28;20457;-74
2022/06/21 07:32:41;;;;;;;29.60;27.60;;;23.70;52.30;;;;;;5010386;28;20556;-72
2022/06/21 07:35:13;;;;;;;28.57;26.67;;;23.90;51.20;;;;;;5003786;28;21069;-71
2022/06/21 07:37:46;;;;;;;28.23;26.63;;;24.20;50.90;;;;;;5005741;28;20488;-73
2022/06/21 07:40:19;;;;;;;29.43;27.53;;;24.20;49.00;;;;;;5003454;28;20475;-73
2022/06/21 07:42:54;;;;;;;27.70;26.10;;;23.90;49.70;;;;;;5010762;28;20462;-72
2022/06/21 07:45:28;;;;;;;28.60;26.80;;;23.80;50.10;;;;;;5006485;28;20452;-72
2022/06/21 07:48:01;;;;;;;28.87;27.10;;;23.70;50.00;;;;;;5003397;28;20481;-73
2022/06/21 07:50:39;;;;;;;29.17;27.57;;;23.60;51.10;;;;;;4994930;28;20538;-71
2022/06/21 07:53:10;;;;;;;28.17;26.67;;;23.80;50.80;;;;;;5005315;28;20580;-75
2022/06/21 07:56:14;;;;;;;29.10;27.23;;;23.80;51.30;;;;;;4995229;28;20461;-76
2022/06/21 07:58:45;;;;;;;28.00;26.20;;;23.70;50.60;;;;;;5002398;28;20476;-73
2022/06/21 08:07:01;;;;;;;31.30;29.57;;;24.00;50.70;;;;;;5012974;28;20522;-72
2022/06/21 08:09:34;;;;;;;29.80;28.00;;;24.20;50.50;;;;;;5006216;28;20468;-73
2022/06/21 08:12:02;;;;;;;30.23;28.40;;;24.00;49.80;;;;;;4997567;28;20540;-73
2022/06/21 08:14:33;;;;;;;29.90;28.10;;;23.90;49.70;;;;;;5009302;28;20477;-72
2022/06/21 08:17:06;;;;;;;29.87;27.77;;;24.00;49.60;;;;;;5003747;28;20556;-74
2022/06/21 08:19:40;;;;;;;31.20;29.40;;;24.00;50.40;;;;;;5004202;28;20453;-73
2022/06/21 08:22:13;;;;;;;29.30;27.50;;;23.90;50.10;;;;;;5010328;28;20460;-73
2022/06/21 08:24:50;;;;;;;30.53;28.60;;;24.00;50.30;;;;;;5002444;28;20467;-73
2022/06/21 08:27:21;;;;;;;30.90;29.03;;;23.70;49.90;;;;;;5005486;28;20576;-72
2022/06/21 08:29:53;;;;;;;32.73;30.60;;;23.60;50.10;;;;;;5006479;28;21094;-73
2022/06/21 08:32:27;;;;;;;32.87;30.77;;;23.80;50.20;;;;;;5016139;28;20461;-73
2022/06/21 08:34:59;;;;;;;29.93;28.23;;;24.00;49.70;;;;;;5007627;28;20542;-70
2022/06/21 08:37:35;;;;;;;30.30;28.50;;;24.00;50.20;;;;;;5006810;28;20839;-71
2022/06/21 08:40:14;;;;;;;32.20;30.23;;;24.20;50.60;;;;;;5010672;28;20456;-70
2022/06/21 08:43:24;;;;;;;32.17;30.10;;;24.30;51.10;;;;;;5019876;28;20856;-69
2022/06/21 08:46:21;;;;;;;31.90;29.90;;;24.60;50.00;;;;;;4983741;28;20976;-72
2022/06/21 08:49:15;;;;;;;29.47;27.73;;;24.70;49.70;;;;;;5002986;28;20965;-70
2022/06/21 08:52:10;;;;;;;30.60;28.90;;;24.60;49.80;;;;;;5007632;28;20567;-70
2022/06/21 08:54:51;;;;;;;29.80;28.20;;;24.70;50.20;;;;;;4999142;28;20477;-71
2022/06/21 08:57:25;;;;;;;31.53;29.30;;;24.90;50.00;;;;;;5011818;28;20556;-72
2022/06/21 09:00:04;;;;;;;32.40;30.53;;;24.80;49.60;;;;;;5006592;28;20564;-70
2022/06/21 09:02:45;;;;;;;32.23;30.33;;;24.70;50.10;;;;;;5012071;28;21020;-74
2022/06/21 09:05:30;;;;;;;31.27;29.40;;;24.60;51.80;;;;;;5014379;28;20458;-70
2022/06/21 09:08:24;;;;;;;29.73;27.93;;;24.50;51.90;;;;;;4995008;28;20477;-70
2022/06/21 09:11:08;;;;;;;33.27;30.80;;;24.40;52.20;;;;;;5001233;28;21004;-70
2022/06/21 09:13:50;;;;;;;31.10;29.00;;;24.60;52.40;;;;;;5004936;28;20491;-69
2022/06/21 09:16:22;;;;;;;30.63;28.83;;;24.40;51.50;;;;;;5021055;28;20472;-73
2022/06/21 09:19:04;;;;;;;28.33;26.63;;;24.40;51.50;;;;;;5002746;28;20469;-71
2022/06/21 09:21:42;;;;;;;29.77;27.87;;;24.60;51.60;;;;;;5016826;28;20485;-71
2022/06/21 09:24:24;;;;;;;34.00;31.53;;;24.80;51.00;;;;;;5009111;28;20457;-72
2022/06/21 09:26:59;;;;;;;30.10;28.30;;;25.10;51.20;;;;;;5023944;28;20576;-72
2022/06/21 09:29:32;;;;;;;29.70;27.60;;;25.30;49.50;;;;;;5002263;28;20484;-70
2022/06/21 09:32:19;;;;;;;30.33;28.53;;;25.30;50.00;;;;;;5023278;28;20547;-70
2022/06/21 09:35:02;;;;;;;31.27;29.43;;;25.40;49.80;;;;;;5011159;28;20508;-70
2022/06/21 09:37:41;;;;;;;30.07;28.20;;;25.60;50.50;;;;;;5024764;28;20486;-70
2022/06/21 09:40:15;;;;;;;31.53;29.50;;;25.90;49.60;;;;;;5011045;28;20473;-70
2022/06/21 09:42:51;;;;;;;31.50;29.60;;;26.00;48.30;;;;;;5010772;28;21124;-70
2022/06/21 09:45:25;;;;;;;32.13;30.23;;;25.90;47.40;;;;;;5010455;28;20466;-70
2022/06/21 09:48:01;;;;;;;30.23;28.33;;;25.60;48.30;;;;;;5009538;28;20483;-69
2022/06/21 09:50:37;;;;;;;31.63;29.50;;;25.30;49.20;;;;;;5003610;28;20569;-70
2022/06/21 09:53:14;;;;;;;30.57;28.60;;;25.40;49.60;;;;;;5005217;28;20951;-70
2022/06/21 09:55:48;;;;;;;28.90;27.20;;;25.40;49.70;;;;;;5005716;28;20744;-70
2022/06/21 09:58:25;;;;;;;29.70;27.80;;;25.50;50.00;;;;;;5003824;28;20670;-70
2022/06/21 10:00:59;;;;;;;29.90;28.20;;;25.70;49.90;;;;;;5007930;28;20464;-70
2022/06/21 10:03:42;;;;;;;31.50;29.60;;;25.60;49.60;;;;;;5008664;28;20464;-70
2022/06/21 10:06:15;;;;;;;32.27;30.13;;;25.40;49.70;;;;;;5004297;28;20545;-70
2022/06/21 10:09:02;;;;;;;32.20;30.30;;;25.30;50.40;;;;;;5000527;28;20451;-70
2022/06/21 10:11:40;;;;;;;30.67;28.80;;;25.20;50.60;;;;;;5013208;28;20549;-71
2022/06/21 10:14:39;;;;;;;31.10;29.10;;;25.40;50.40;;;;;;5004371;28;20569;-70
2022/06/21 10:17:23;;;;;;;29.00;27.00;;;25.50;50.00;;;;;;5005197;28;20501;-70
2022/06/21 10:20:07;;;;;;;29.90;27.90;;;25.60;50.60;;;;;;5005091;28;20474;-70
2022/06/21 10:22:44;;;;;;;27.77;26.07;;;25.50;50.90;;;;;;5006491;28;20483;-71
2022/06/21 10:25:35;;;;;;;29.80;28.07;;;25.60;50.40;;;;;;5009314;28;20511;-71
2022/06/21 10:28:34;;;;;;;28.70;27.00;;;25.70;50.30;;;;;;5015260;28;20583;-69
2022/06/21 10:31:14;;;;;;;31.33;29.60;;;25.80;50.40;;;;;;4992627;28;20557;-71
2022/06/21 10:34:09;;;;;;;28.87;27.20;;;25.80;50.60;;;;;;5006770;28;20486;-71
2022/06/21 10:36:55;;;;;;;33.53;31.33;;;25.90;50.30;;;;;;4983779;28;21240;-69
2022/06/21 10:39:50;;;;;;;37.63;35.50;;;25.70;50.80;;;;;;5001682;28;21050;-72
2022/06/21 10:42:49;;;;;;;29.53;27.80;;;25.70;51.40;;;;;;5004308;28;20470;-71
2022/06/21 10:45:32;;;;;;;32.63;30.63;;;25.70;51.00;;;;;;5005005;28;20938;-70
2022/06/21 10:48:25;;;;;;;31.80;29.60;;;25.80;50.80;;;;;;5008019;28;20851;-71
2022/06/21 10:50:59;;;;;;;31.00;29.10;;;25.70;51.20;;;;;;4973247;28;20462;-70
2022/06/21 10:53:42;;;;;;;30.30;28.50;;;25.70;51.50;;;;;;5001630;28;20490;-74
2022/06/21 10:59:25;;;;;;;32.37;30.30;;;25.70;52.00;;;;;;5004245;28;20842;-73
2022/06/21 11:02:00;;;;;;;32.30;30.27;;;25.70;51.80;;;;;;5007141;28;20454;-72
2022/06/21 11:04:47;;;;;;;32.97;31.07;;;25.90;52.00;;;;;;5007075;28;20526;-72
2022/06/21 11:07:26;;;;;;;32.63;30.60;;;26.10;52.00;;;;;;5005317;28;20542;-72
2022/06/21 11:09:56;;;;;;;33.20;31.20;;;26.30;51.60;;;;;;4999465;28;20463;-72
2022/06/21 11:12:56;;;;;;;31.20;29.30;;;26.50;51.70;;;;;;5006318;28;20544;-71
2022/06/21 11:15:36;;;;;;;31.97;30.07;;;26.60;51.50;;;;;;5005090;28;20487;-71
2022/06/21 11:18:15;;;;;;;34.57;32.27;;;26.80;51.50;;;;;;5007001;28;20491;-72
2022/06/21 11:21:03;;;;;;;31.87;29.83;;;26.60;52.00;;;;;;5007892;28;20927;-71
2022/06/21 11:23:42;;;;;;;33.33;31.13;;;26.60;52.20;;;;;;5004699;28;20463;-72
2022/06/21 11:26:28;;;;;;;34.67;32.57;;;26.80;51.80;;;;;;5007430;28;20461;-73
2022/06/21 11:29:03;;;;;;;33.70;31.57;;;27.10;51.50;;;;;;5006699;28;20449;-74
2022/06/21 11:31:41;;;;;;;32.47;30.27;;;27.40;51.20;;;;;;5006712;28;20550;-75
2022/06/21 11:34:17;;;;;;;33.23;31.03;;;27.70;51.20;;;;;;5006639;28;20852;-76
2022/06/21 11:36:53;;;;;;;34.67;32.40;;;27.80;51.40;;;;;;5006691;28;20535;-75
2022/06/21 11:39:30;;;;;;;32.77;30.67;;;28.20;50.50;;;;;;5001891;28;21398;-75
2022/06/21 11:42:08;;;;;;;31.53;29.23;;;28.50;50.10;;;;;;5013106;28;20965;-74
2022/06/21 11:45:14;;;;;;;35.00;32.40;;;28.80;49.90;;;;;;5003861;28;20457;-76
2022/06/21 11:47:57;;;;;;;34.97;32.67;;;29.10;49.50;;;;;;5003684;28;20524;-74
2022/06/21 11:50:27;;;;;;;35.37;33.17;;;29.40;49.00;;;;;;5007021;28;20464;-76
2022/06/21 11:53:43;;;;;;;31.70;29.80;;;29.80;47.70;;;;;;5006619;28;20461;-74
2022/06/21 11:56:19;;;;;;;34.93;32.53;;;29.90;47.80;;;;;;5006406;28;20511;-74
2022/06/21 11:58:51;;;;;;;35.77;33.50;;;30.00;47.40;;;;;;5006854;28;20507;-73
2022/06/21 12:01:24;;;;;;;35.10;33.00;;;30.20;47.30;;;;;;5008061;28;20534;-73
2022/06/21 12:04:03;;;;;;;36.07;34.07;;;30.40;47.00;;;;;;5004782;28;20499;-72
2022/06/21 12:06:39;;;;;;;33.20;31.10;;;30.40;46.90;;;;;;5008469;28;20677;-73
2022/06/21 12:09:16;;;;;;;33.87;31.87;;;30.40;47.00;;;;;;5003359;28;20556;-73
2022/06/21 12:12:00;;;;;;;33.37;31.27;;;30.30;47.10;;;;;;5009263;28;20475;-73
2022/06/21 12:14:49;;;;;;;34.97;32.57;;;30.30;47.30;;;;;;5006732;28;20509;-73
2022/06/21 12:17:20;;;;;;;31.93;30.03;;;30.50;47.80;;;;;;5004283;28;20560;-73
2022/06/21 12:19:57;;;;;;;35.50;33.00;;;30.40;47.80;;;;;;5000282;28;20480;-72
2022/06/21 12:22:31;;;;;;;35.30;33.07;;;30.20;48.30;;;;;;5004775;28;20483;-73
2022/06/21 12:24:59;;;;;;;36.50;34.00;;;30.20;48.20;;;;;;5009352;28;20536;-75
2022/06/21 12:27:29;;;;;;;34.07;31.87;;;30.30;47.90;;;;;;5007655;28;20565;-74
2022/06/21 12:30:01;;;;;;;34.87;32.50;;;30.30;48.40;;;;;;5001655;28;20519;-73
2022/06/21 12:32:30;;;;;;;36.70;34.40;;;30.50;48.10;;;;;;5009957;28;20536;-74
2022/06/21 12:35:02;;;;;;;33.07;31.00;;;30.30;47.70;;;;;;5007630;28;20495;-74
2022/06/21 12:37:35;;;;;;;32.80;30.70;;;30.00;48.10;;;;;;5003979;28;21007;-75
2022/06/21 12:40:12;;;;;;;36.57;34.20;;;29.80;48.50;;;;;;5005383;28;20968;-75
2022/06/21 12:43:06;;;;;;;33.43;31.33;;;29.50;49.30;;;;;;5007307;28;20469;-73
2022/06/21 12:45:54;;;;;;;35.57;33.17;;;29.30;49.60;;;;;;5004548;28;20875;-73
2022/06/21 12:48:54;;;;;;;35.07;32.90;;;29.20;50.30;;;;;;5006534;28;20894;-74
2022/06/21 12:51:30;;;;;;;34.53;32.43;;;29.20;50.80;;;;;;5002800;28;20513;-72
2022/06/21 12:54:20;;;;;;;36.40;33.60;;;29.10;51.40;;;;;;5001528;28;20460;-74
2022/06/21 12:57:07;;;;;;;36.20;33.70;;;29.00;50.90;;;;;;5002561;28;20491;-78
2022/06/21 13:00:02;;;;;;;37.17;34.60;;;29.00;51.50;;;;;;5003369;28;20495;-75
2022/06/21 13:02:54;;;;;;;35.17;32.83;;;29.00;51.10;;;;;;5006457;28;20971;-75
2022/06/21 13:05:37;;;;;;;34.53;32.33;;;28.70;51.40;;;;;;5003475;28;20537;-74
2022/06/21 13:08:32;;;;;;;36.73;34.13;;;28.60;52.20;;;;;;5006226;28;20485;-74
2022/06/21 13:11:19;;;;;;;34.80;32.33;;;28.70;52.50;;;;;;5001818;28;20500;-73
2022/06/21 13:14:02;;;;;;;33.10;31.10;;;28.70;52.00;;;;;;5004666;28;20504;-73
2022/06/21 13:16:45;;;;;;;33.53;31.57;;;28.80;52.10;;;;;;5000132;28;20560;-73
2022/06/21 13:19:36;;;;;;;37.23;34.90;;;29.00;51.50;;;;;;5005146;28;20565;-73
2022/06/21 13:22:21;;;;;;;37.00;34.60;;;29.00;51.40;;;;;;5005794;28;20549;-70